createdAt,value
2022-11-13T00:00:07.832Z,29.98
2022-11-13T00:00:19.730Z,29.65
2022-11-13T00:00:31.739Z,28.67
2022-11-13T00:00:43.508Z,27.10
2022-11-13T00:00:55.425Z,26.48
2022-11-13T00:01:11.911Z,27.80
2022-11-13T00:01:25.249Z,28.52
2022-11-13T00:01:37.050Z,28.10
2022-11-13T00:01:48.946Z,29.10
2022-11-13T00:02:00.745Z,31.42
2022-11-13T00:02:12.631Z,30.42
2022-11-13T00:02:24.475Z,28.63
2022-11-13T00:02:36.487Z,27.02
2022-11-13T00:02:48.319Z,28.10
2022-11-13T00:03:00.151Z,28.60
2022-11-13T00:03:12.057Z,30.05
2022-11-13T00:03:24.112Z,29.42
2022-11-13T00:03:36.076Z,27.92
2022-11-13T00:03:47.960Z,27.30
2022-11-13T00:03:59.734Z,26.90
2022-11-13T00:04:12.960Z,26.52
2022-11-13T00:04:25.079Z,24.92
2022-11-13T00:04:36.913Z,23.80
2022-11-13T00:04:48.783Z,23.95
2022-11-13T00:05:00.632Z,26.38
2022-11-13T00:05:12.440Z,27.35
2022-11-13T00:05:24.245Z,29.45
2022-11-13T00:05:36.108Z,30.38
2022-11-13T00:05:48.009Z,29.80
2022-11-13T00:06:03.250Z,27.20
2022-11-13T00:06:15.415Z,25.73
2022-11-13T00:06:27.185Z,26.52
2022-11-13T00:06:38.958Z,27.67
2022-11-13T00:06:53.668Z,28.15
2022-11-13T00:07:09.790Z,26.45
2022-11-13T00:07:21.736Z,26.05
2022-11-13T00:07:33.527Z,27.55
2022-11-13T00:07:45.367Z,28.40
2022-11-13T00:07:57.194Z,25.98
2022-11-13T00:08:09.011Z,27.08
2022-11-13T00:08:20.967Z,28.08
2022-11-13T00:08:32.842Z,29.85
2022-11-13T00:08:44.910Z,29.02
2022-11-13T00:08:56.717Z,28.90
2022-11-13T00:09:11.377Z,25.80
2022-11-13T00:09:23.168Z,27.23
2022-11-13T00:09:34.978Z,26.92
2022-11-13T00:09:47.009Z,25.63
2022-11-13T00:09:58.900Z,27.92
2022-11-13T00:10:10.756Z,29.73
2022-11-13T00:10:22.573Z,28.35
2022-11-13T00:10:34.315Z,27.67
2022-11-13T00:10:46.144Z,25.80
2022-11-13T00:11:05.301Z,27.48
2022-11-13T00:11:19.488Z,29.58
2022-11-13T00:11:31.349Z,28.20
2022-11-13T00:11:43.244Z,27.05
2022-11-13T00:11:55.058Z,28.25
2022-11-13T00:12:06.935Z,27.70
2022-11-13T00:12:18.772Z,29.25
2022-11-13T00:12:30.583Z,27.55
2022-11-13T00:12:42.490Z,26.73
2022-11-13T00:12:54.397Z,26.75
2022-11-13T00:13:06.605Z,29.30
2022-11-13T00:13:18.457Z,30.10
2022-11-13T00:13:30.782Z,29.70
2022-11-13T00:13:45.560Z,30.95
2022-11-13T00:13:57.375Z,32.38
2022-11-13T00:14:09.149Z,30.75
2022-11-13T00:14:21.201Z,30.25
2022-11-13T00:14:33.082Z,31.38
2022-11-13T00:14:44.860Z,32.22
2022-11-13T00:14:56.636Z,30.73
2022-11-13T00:15:08.997Z,31.30
2022-11-13T00:15:20.825Z,28.95
2022-11-13T00:15:32.703Z,28.58
2022-11-13T00:15:44.542Z,29.85
2022-11-13T00:16:03.100Z,30.92
2022-11-13T00:16:17.662Z,29.58
2022-11-13T00:16:29.458Z,28.33
2022-11-13T00:16:41.270Z,28.48
2022-11-13T00:16:52.987Z,25.90
2022-11-13T00:17:04.784Z,27.06
2022-11-13T00:17:16.622Z,28.05
2022-11-13T00:17:28.775Z,29.10
2022-11-13T00:17:40.574Z,27.52
2022-11-13T00:17:52.350Z,25.65
2022-11-13T00:18:04.384Z,25.30
2022-11-13T00:18:16.336Z,25.05
2022-11-13T00:18:30.411Z,26.35
2022-11-13T00:18:42.605Z,27.95
2022-11-13T00:18:54.353Z,28.23
2022-11-13T00:19:06.206Z,27.17
2022-11-13T00:19:18.119Z,26.20
2022-11-13T00:19:29.942Z,28.15
2022-11-13T00:19:41.666Z,29.45
2022-11-13T00:19:53.460Z,30.05
2022-11-13T00:20:05.798Z,29.52
2022-11-13T00:20:18.598Z,29.55
2022-11-13T00:20:30.394Z,29.00
2022-11-13T00:20:42.241Z,28.15
2022-11-13T00:20:54.209Z,26.60
2022-11-13T00:21:12.108Z,26.48
2022-11-13T00:21:25.352Z,28.98
2022-11-13T00:21:37.165Z,28.52
2022-11-13T00:21:48.941Z,26.40
2022-11-13T00:22:00.822Z,25.13
2022-11-13T00:22:13.269Z,26.40
2022-11-13T00:22:25.020Z,27.27
2022-11-13T00:22:36.810Z,26.83
2022-11-13T00:22:48.631Z,27.83
2022-11-13T00:23:00.497Z,28.33
2022-11-13T00:23:12.278Z,28.67
2022-11-13T00:23:24.331Z,30.95
2022-11-13T00:23:36.597Z,30.23
2022-11-13T00:23:48.676Z,27.27
2022-11-13T00:24:00.463Z,28.10
2022-11-13T00:24:12.229Z,26.40
2022-11-13T00:24:24.075Z,25.85
2022-11-13T00:24:35.945Z,25.75
2022-11-13T00:24:47.705Z,26.08
2022-11-13T00:24:59.489Z,26.80
2022-11-13T00:25:11.335Z,26.08
2022-11-13T00:25:23.194Z,24.27
2022-11-13T00:25:35.856Z,24.83
2022-11-13T00:25:47.725Z,25.13
2022-11-13T00:26:07.960Z,26.40
2022-11-13T00:26:24.975Z,27.90
2022-11-13T00:26:36.770Z,27.42
2022-11-13T00:26:49.049Z,28.67
2022-11-13T00:27:00.918Z,28.00
2022-11-13T00:27:12.808Z,27.13
2022-11-13T00:27:24.596Z,27.42
2022-11-13T00:27:36.478Z,27.92
2022-11-13T00:27:48.369Z,27.75
2022-11-13T00:28:00.321Z,29.25
2022-11-13T00:28:12.052Z,28.65
2022-11-13T00:28:24.054Z,26.55
2022-11-13T00:28:36.067Z,27.05
2022-11-13T00:28:51.680Z,26.92
2022-11-13T00:29:03.731Z,27.35
2022-11-13T00:29:15.795Z,28.85
2022-11-13T00:29:27.587Z,28.45
2022-11-13T00:29:39.855Z,28.73
2022-11-13T00:29:51.638Z,29.98
2022-11-13T00:30:05.269Z,29.73
2022-11-13T00:30:19.508Z,30.67
2022-11-13T00:30:31.494Z,31.27
2022-11-13T00:30:43.272Z,30.15
2022-11-13T00:31:02.170Z,28.40
2022-11-13T00:31:15.229Z,29.77
2022-11-13T00:31:27.089Z,27.25
2022-11-13T00:31:38.805Z,27.88
2022-11-13T00:31:50.600Z,28.02
2022-11-13T00:32:02.435Z,26.38
2022-11-13T00:32:14.326Z,26.40
2022-11-13T00:32:26.614Z,26.58
2022-11-13T00:32:40.073Z,26.67
2022-11-13T00:32:51.824Z,27.05
2022-11-13T00:33:03.619Z,28.00
2022-11-13T00:33:26.459Z,27.52
2022-11-13T00:34:19.529Z,28.20
2022-11-13T00:34:45.899Z,25.08
2022-11-13T00:34:50.856Z,26.52
2022-11-13T00:35:02.638Z,26.52
2022-11-13T00:35:14.511Z,26.80
2022-11-13T00:35:26.297Z,26.77
2022-11-13T00:35:38.019Z,26.65
2022-11-13T00:35:49.786Z,26.42
2022-11-13T00:36:05.480Z,25.63
2022-11-13T00:36:26.444Z,27.60
2022-11-13T00:36:38.577Z,27.63
2022-11-13T00:36:50.408Z,28.13
2022-11-13T00:37:02.291Z,29.48
2022-11-13T00:37:14.181Z,27.73
2022-11-13T00:37:25.935Z,27.67
2022-11-13T00:37:37.821Z,26.58
2022-11-13T00:37:49.569Z,28.67
2022-11-13T00:38:01.369Z,29.55
2022-11-13T00:38:13.186Z,29.98
2022-11-13T00:38:25.160Z,28.95
2022-11-13T00:38:37.109Z,28.08
2022-11-13T00:38:49.014Z,27.35
2022-11-13T00:39:00.874Z,26.88
2022-11-13T00:39:12.641Z,26.67
2022-11-13T00:39:24.538Z,28.42
2022-11-13T00:39:36.309Z,29.75
2022-11-13T00:39:48.076Z,29.40
2022-11-13T00:39:59.967Z,30.88
2022-11-13T00:40:12.071Z,30.23
2022-11-13T00:40:23.830Z,30.98
2022-11-13T00:40:35.758Z,27.50
2022-11-13T00:40:47.527Z,25.50
2022-11-13T00:40:59.423Z,25.55
2022-11-13T00:41:11.400Z,26.05
2022-11-13T00:41:23.756Z,28.88
2022-11-13T00:41:35.545Z,30.92
2022-11-13T00:41:47.360Z,29.98
2022-11-13T00:41:59.206Z,28.58
2022-11-13T00:42:10.985Z,30.15
2022-11-13T00:42:22.786Z,29.27
2022-11-13T00:42:34.508Z,27.33
2022-11-13T00:42:46.251Z,27.00
2022-11-13T00:42:58.039Z,26.60
2022-11-13T00:43:09.882Z,28.00
2022-11-13T00:43:21.685Z,28.60
2022-11-13T00:43:33.464Z,29.20
2022-11-13T00:43:45.442Z,28.48
2022-11-13T00:43:57.272Z,27.27
